Airfield :
LOGIN :

Register | Disclaimer

   EN    FR    IT 

 










Legend :    VFR   Marginal VFR   IFR   Intensive IFR   Very Intensive IFR
Visi :
Ceiling :
>= 8 km
>= 3000ft
5 to 8 km
1000 to 3000 ft
1500m to 5 km
500 to 1000 ft
800 to 1500m
200 to 500 ft
< 800m
< 200 ft
Symbols :   Thunderstorms  Fog  Heavy snow  Heavy precipitations  Wind > 20 kt
SIGMETs :     Misc.  Thunderstorms  Icing  Turbulence  Mountain Waves  Volcanic Ashes






- Airport Elevation : 412 ft
- IATA code : KGS


LGKO - Ippokratis

CURRENT METAR :
  • 210020Z 03004KT 9999 FEW025 18/11 Q1015

EXPIRED METARs :
  • 202350Z 03005KT 9999 FEW025 18/11 Q1015
  • 202320Z 06005KT 9999 FEW025 18/11 Q1015
  • 202250Z 06004KT 9999 FEW025 18/11 Q1015
  • 202220Z 04004KT 9999 FEW025 18/10 Q1016
  • 202150Z 04004KT 9999 FEW025 18/10 Q1016

TAF TAF LGKO
Valid from the 21 at 00:00 until the 22 at 00:00 UTC


202300Z 2100/2124 10010KT 9999 FEW018
TEMPO 2115/2117 FEW018 BKN050
TEMPO 2106/2108 VRB05KT
BECMG 2115/2117 32011KT
TEMPO 2117/2124 32011G22KT



MET'MAP, your aeronautical weather chart ! - Copyright ORBIFLY December 2007 - Disclaimer

ORBIFLY MET'MAP TEAM :

Programming & Development : Alexandra Zaïnal
Original concept : Baudouin d'Aumeries
Technical & hardware support : Manuel Goepfert
Assistance : Marc-Olivier Méhu

Contact : metmap@orbifly.com




SOURCES & CREDITS :

   NOAA